Latest Weather Observations for Hughenden

IDQ60801

Issued at 1:02 pm EST Sunday 26 March 2017 (issued every 30 minutes, with the page automatically refreshed every 10 minutes)

About weather observations | Map of weather stations | Latest weather observations for QLD | Other Formats
Station Details ID: 030022 Name: HUGHENDEN AIRPORT Lat: -20.82 Lon: 144.23 Height: 316.4 m
Data from the previous 72 hours. | See also: Recent months at Hughenden
Date/Time
EST
Temp
°C
App
Temp
°C
Dew
Point
°C
Rel
Hum
%
Delta-T
°C
Wind Press
QNH
hPa
Press
MSL
hPa
Rain since
9am
mm
Dir  Spd
km/h
Gust
km/h
Spd
kts
Gust
kts
26/01:00pm 34.7 32.2 14.0 28 12.9 ESE 20 26 11 14 1010.1 1007.9 0.0
26/12:30pm 34.0 31.7 14.0 30 12.4 ESE 19 30 10 16 1010.8 1008.6 0.0
26/12:00pm 33.7 31.4 14.7 32 11.9 SE 20 32 11 17 1011.4 1009.2 0.0
26/11:30am 33.0 30.7 14.6 33 11.4 SE 20 33 11 18 1012.0 1009.8 0.0
26/11:00am 32.9 30.9 15.4 35 11.0 ESE 20 32 11 17 1012.4 1010.2 0.0
26/10:30am 31.8 29.1 15.7 37 10.1 ESE 24 37 13 20 1012.8 1010.7 0.0
26/10:00am 31.2 28.6 16.0 40 9.6 ESE 24 33 13 18 1013.3 1011.2 0.0
26/09:30am 30.0 27.3 15.7 42 8.9 ESE 24 32 13 17 1013.6 1011.4 0.0
26/09:00am 29.0 26.5 16.2 46 8.0 E 24 33 13 18 1013.5 1011.3 0.0
26/08:30am 28.0 25.6 16.3 49 7.3 E 24 32 13 17 1013.1 1011.0 0.0
26/08:00am 26.9 24.5 16.5 53 6.5 E 24 32 13 17 1013.0 1010.9 0.0
26/07:30am 26.1 25.1 16.6 55 5.9 E 17 24 9 13 1012.6 1010.4 0.0
26/07:00am 24.2 24.3 16.5 62 4.8 ESE 11 13 6 7 1012.3 1010.1 0.0
26/06:30am 23.4 23.0 16.2 64 4.4 E 13 15 7 8 1011.9 1009.7 0.0
26/06:00am 23.6 23.5 15.9 62 4.7 ENE 11 13 6 7 1011.6 1009.4 0.0
26/05:30am 23.5 23.1 16.1 63 4.6 ESE 13 17 7 9 1011.4 1009.2 0.0
26/05:00am 23.0 22.5 15.8 64 4.4 ESE 13 15 7 8 1011.2 1009.0 0.0
26/04:30am 23.1 23.0 15.9 64 4.4 ESE 11 13 6 7 1010.9 1008.7 0.0
26/04:00am 23.0 22.8 15.8 64 4.4 ESE 11 13 6 7 1010.6 1008.4 0.0
26/03:30am 23.5 23.0 15.8 62 4.7 ESE 13 13 7 7 1010.5 1008.3 0.0
26/03:00am 23.8 23.9 15.6 60 5.0 ESE 9 11 5 6 1010.7 1008.5 0.0
26/02:30am 24.7 24.7 16.2 59 5.3 E 11 13 6 7 1010.9 1008.7 0.0
26/02:00am 24.9 25.4 15.5 56 5.8 ESE 7 7 4 4 1011.1 1008.9 0.0
26/01:30am 26.2 26.2 16.2 54 6.2 ENE 11 11 6 6 1011.1 1008.9 0.0
26/01:00am 26.7 26.3 16.3 53 6.5 NE 13 15 7 8 1011.2 1009.0 0.0
26/12:30am 25.9 26.4 15.6 53 6.3 ENE 7 9 4 5 1011.5 1009.3 0.0
26/12:00am 27.7 27.6 16.0 49 7.3 E 11 13 6 7 1011.7 1009.5 0.0
 
Date/Time
EST
Temp
°C
App
Temp
°C
Dew
Point
°C
Rel
Hum
%
Delta-T
°C
Wind Press
QNH
hPa
Press
MSL
hPa
Rain since
9am
mm
Dir  Spd
km/h
Gust
km/h
Spd
kts
Gust
kts
25/11:30pm 28.4 27.6 16.0 47 7.8 ENE 15 19 8 10 1011.9 1009.7 0.0
25/11:00pm 28.7 28.2 15.9 45 8.0 E 13 17 7 9 1012.1 1009.9 0.0
25/10:30pm 29.3 28.1 16.1 44 8.3 E 17 22 9 12 1012.2 1010.0 0.0
25/10:00pm 29.8 28.3 16.2 43 8.6 E 19 28 10 15 1012.2 1010.0 0.0
25/09:30pm 30.2 28.0 15.9 42 9.0 E 22 32 12 17 1012.2 1010.0 0.0
25/09:00pm 30.8 28.1 15.6 39 9.5 E 24 39 13 21 1011.8 1009.6 0.0
25/08:30pm 31.6 28.9 14.7 36 10.5 ESE 22 32 12 17 1011.2 1009.0 0.0
25/08:00pm 31.9 29.0 14.1 34 11.0 ESE 22 30 12 16 1010.7 1008.5 0.0
25/07:30pm 32.1 30.3 13.3 31 11.4 ESE 15 20 8 11 1010.1 1007.9 0.0
25/07:00pm 32.9 30.2 13.5 30 11.9 ESE 20 30 11 16 1009.4 1007.2 0.0
25/06:30pm 33.5 30.4 13.5 29 12.3 ESE 22 28 12 15 1008.7 1006.5 0.0
25/06:00pm 34.1 31.4 13.5 28 12.7 ESE 20 30 11 16 1008.2 1006.0 0.0
25/05:30pm 35.2 32.3 12.8 26 13.7 E 20 28 11 15 1007.9 1005.7 0.0
25/05:00pm 35.4 32.4 12.4 25 14.0 ESE 20 32 11 17 1007.8 1005.6 0.0
25/04:30pm 36.3 33.5 12.5 24 14.5 ESE 19 26 10 14 1007.8 1005.6 0.0
25/04:00pm 36.1 33.8 11.7 23 14.8 ESE 15 24 8 13 1007.9 1005.7 0.0
25/03:30pm 36.0 32.7 11.6 23 14.7 SE 20 32 11 17 1008.0 1005.8 0.0
25/03:00pm 36.2 32.4 11.1 22 15.0 E 22 30 12 16 1008.2 1006.0 0.0
25/02:30pm 36.6 33.1 12.1 23 14.9 ESE 22 35 12 19 1008.4 1006.2 0.0
25/02:00pm 36.6 33.5 12.1 23 14.9 ESE 20 35 11 19 1008.9 1006.7 0.0
25/01:30pm 35.7 32.5 11.4 23 14.6 SE 19 30 10 16 1009.2 1007.0 0.0
25/01:00pm 35.9 32.8 11.5 23 14.7 ESE 19 28 10 15 1009.8 1007.7 0.0
25/12:30pm 35.0 31.1 10.8 23 14.3 ESE 22 32 12 17 1010.4 1008.2 0.0
25/12:00pm 34.9 30.8 10.0 22 14.6 ESE 22 33 12 18 1011.1 1008.9 0.0
25/11:30am 33.6 30.3 11.5 26 13.2 ESE 20 32 11 17 1011.7 1009.5 0.0
25/11:00am 32.9 29.9 12.5 29 12.3 ESE 20 33 11 18 1012.2 1010.0 0.0
25/10:30am 32.7 29.6 12.3 28 12.3 ESE 20 28 11 15 1012.5 1010.3 0.0
25/10:00am 31.7 28.5 13.0 32 11.3 E 22 33 12 18 1012.8 1010.7 0.0
25/09:30am 30.7 28.3 13.9 36 10.3 E 19 26 10 14 1012.9 1010.8 0.0
25/09:00am 29.6 27.4 15.0 41 9.0 E 20 28 11 15 1012.8 1010.7 0.0
25/08:30am 28.1 27.5 18.8 57 6.1 E 20 28 11 15 1012.4 1010.2 0.0
25/08:00am 27.4 27.7 19.5 62 5.2 E 17 20 9 11 1012.1 1009.9 0.0
25/07:30am 25.8 26.6 19.0 66 4.4 ESE 13 17 7 9 1011.4 1009.2 0.0
25/07:00am 24.2 26.0 18.8 72 3.5 ENE 7 9 4 5 1011.2 1009.0 0.0
25/06:30am 23.3 24.3 18.6 75 3.0 ESE 11 11 6 6 1010.9 1008.7 0.0
25/06:00am 23.4 24.3 18.5 74 3.1 ESE 11 13 6 7 1010.8 1008.6 0.0
25/05:30am 23.9 24.8 18.5 72 3.5 SE 11 15 6 8 1010.6 1008.4 0.0
25/05:00am 24.1 27.0 18.3 70 3.7 CALM 0 7 0 4 1010.3 1008.1 0.0
25/04:30am 24.0 26.8 18.0 69 3.8 CALM 0 0 0 0 1010.3 1008.1 0.0
25/04:00am 24.5 26.1 18.2 68 4.0 NE 7 9 4 5 1010.1 1007.9 0.0
25/03:30am 24.5 25.9 17.7 66 4.3 ESE 7 9 4 5 1010.2 1008.0 0.0
25/03:00am 25.5 27.3 18.2 64 4.7 E 6 7 3 4 1010.3 1008.1 0.0
25/02:30am 25.9 26.8 18.3 63 4.9 ENE 11 13 6 7 1010.4 1008.2 0.0
25/02:00am 26.2 27.3 18.1 61 5.2 ENE 9 11 5 6 1010.8 1008.6 0.0
25/01:30am 26.8 27.2 18.1 59 5.6 ENE 13 15 7 8 1011.1 1008.9 0.0
25/01:00am 27.1 27.5 18.1 58 5.8 ENE 13 15 7 8 1011.4 1009.2 0.0
25/12:30am 27.7 27.7 18.1 56 6.2 ENE 15 20 8 11 1011.6 1009.4 0.0
25/12:00am 28.1 27.8 18.2 55 6.4 ENE 17 22 9 12 1011.6 1009.4 0.0
 
Date/Time
EST
Temp
°C
App
Temp
°C
Dew
Point
°C
Rel
Hum
%
Delta-T
°C
Wind Press
QNH
hPa
Press
MSL
hPa
Rain since
9am
mm
Dir  Spd
km/h
Gust
km/h
Spd
kts
Gust
kts
24/11:30pm 28.4 28.1 18.2 54 6.6 E 17 22 9 12 1011.7 1009.5 0.0
24/11:00pm 28.8 28.0 18.0 52 7.0 ENE 19 30 10 16 1011.7 1009.5 0.0
24/10:30pm 29.0 28.5 17.8 50 7.2 ENE 17 20 9 11 1011.8 1009.6 0.0
24/10:00pm 29.5 27.8 18.0 50 7.4 E 24 32 13 17 1011.5 1009.3 0.0
24/09:30pm 30.0 28.8 18.4 49 7.5 ENE 22 30 12 16 1011.1 1008.9 0.0
24/09:00pm 30.6 29.6 18.0 47 8.2 ENE 20 30 11 16 1010.8 1008.6 0.0
24/08:30pm 31.2 29.0 17.9 45 8.6 E 26 33 14 18 1010.3 1008.1 0.0
24/08:00pm 30.8 30.6 16.8 43 8.9 ESE 13 19 7 10 1009.8 1007.7 0.0
24/07:30pm 31.3 30.8 16.9 42 9.2 ESE 15 20 8 11 1009.6 1007.4 0.0
24/07:00pm 31.6 30.1 16.7 40 9.5 ESE 20 28 11 15 1009.1 1006.9 0.0
24/06:30pm 32.2 31.2 16.5 39 10.0 ESE 17 22 9 12 1008.8 1006.6 0.0
24/06:00pm 32.8 30.3 16.2 37 10.6 ESE 24 32 13 17 1008.4 1006.2 0.0
24/05:30pm 33.5 31.5 16.4 36 10.9 ESE 22 33 12 18 1008.0 1005.8 0.0
24/05:00pm 34.2 32.1 15.1 31 12.0 E 20 32 11 17 1008.0 1005.8 0.0
24/04:30pm 34.6 33.5 16.4 33 11.7 E 17 28 9 15 1007.8 1005.6 0.0
24/04:00pm 34.6 33.0 16.4 33 11.7 E 20 32 11 17 1007.7 1005.5 0.0
24/03:30pm 34.7 32.9 17.0 35 11.5 E 22 33 12 18 1007.9 1005.7 0.0
24/03:00pm 33.6 31.6 15.6 34 11.4 E 20 35 11 19 1007.9 1005.7 0.0
24/02:30pm 34.7 33.1 16.5 33 11.7 E 20 33 11 18 1008.3 1006.1 0.0
24/02:00pm 33.4 31.9 16.7 36 10.7 ESE 20 30 11 16 1008.9 1006.7 0.0
24/01:30pm 34.8 33.4 16.6 33 11.7 ENE 19 30 10 16 1009.4 1007.2 0.0
24/01:00pm 34.3 33.3 17.5 36 10.9 ENE 19 30 10 16 1009.9 1007.8 0.0
24/12:30pm 33.7 31.9 16.1 34 11.2 ENE 20 32 11 17 1010.4 1008.2 0.0
24/12:00pm 32.6 30.9 17.2 39 9.9 E 22 35 12 19 1010.9 1008.7 0.0
24/11:30am 32.7 31.9 18.1 42 9.5 E 19 32 10 17 1011.4 1009.2 0.0
24/11:00am 31.5 31.1 18.8 46 8.4 ENE 19 30 10 16 1011.7 1009.5 0.0
24/10:30am 31.2 30.8 18.9 48 8.1 ENE 19 26 10 14 1012.0 1009.8 0.0
24/10:00am 30.6 31.0 19.0 50 7.6 E 15 24 8 13 1012.1 1009.9 0.0
24/09:30am 30.3 31.4 19.6 52 7.1 ENE 13 22 7 12 1012.1 1009.9 0.0
24/09:00am 28.7 28.9 19.3 56 6.2 NE 17 20 9 11 1012.1 1009.9 0.0
24/08:30am 28.3 28.5 20.1 61 5.4 ENE 19 24 10 13 1011.8 1009.6 0.0
24/08:00am 26.8 26.9 19.9 66 4.5 ENE 19 28 10 15 1011.5 1009.3 0.0
24/07:30am 26.6 27.6 20.2 68 4.2 ENE 15 19 8 10 1011.3 1009.1 0.0
24/07:00am 25.4 26.8 20.4 74 3.3 E 13 17 7 9 1010.9 1008.7 0.0
24/06:30am 25.1 26.8 20.1 74 3.3 E 11 15 6 8 1010.8 1008.6 0.0
24/06:00am 25.1 26.8 20.1 74 3.3 ESE 11 13 6 7 1010.5 1008.3 0.0
24/05:30am 25.4 27.2 20.4 74 3.3 ESE 11 15 6 8 1010.4 1008.2 0.0
24/05:00am 25.5 27.4 20.5 74 3.3 ESE 11 13 6 7 1010.2 1008.0 0.0
24/04:30am 25.5 28.0 20.3 73 3.4 SE 7 9 4 5 1009.8 1007.7 0.0
24/04:00am 25.9 28.1 20.5 72 3.6 E 9 11 5 6 1009.9 1007.8 0.0
24/03:30am 26.2 27.7 20.5 71 3.8 E 13 17 7 9 1010.1 1007.9 0.0
24/03:00am 26.5 27.3 20.6 70 3.9 E 17 20 9 11 1009.9 1007.8 0.0
24/02:30am 26.7 27.8 20.5 69 4.1 E 15 20 8 11 1010.3 1008.1 0.0
24/02:00am 26.9 28.3 20.3 67 4.4 E 13 17 7 9 1010.5 1008.3 0.0
24/01:30am 27.4 27.9 20.0 64 4.9 E 17 20 9 11 1010.7 1008.5 0.0
24/01:00am 27.6 28.0 19.9 63 5.1 E 17 20 9 11 1010.8 1008.6 0.0
24/12:30am 27.9 27.9 19.7 61 5.4 ENE 19 26 10 14 1011.2 1009.0 0.0
24/12:00am 28.3 28.7 19.8 60 5.6 ENE 17 24 9 13 1011.5 1009.3 0.0
 
Date/Time
EST
Temp
°C
App
Temp
°C
Dew
Point
°C
Rel
Hum
%
Delta-T
°C
Wind Press
QNH
hPa
Press
MSL
hPa
Rain since
9am
mm
Dir  Spd
km/h
Gust
km/h
Spd
kts
Gust
kts
23/11:30pm 28.6 28.0 19.8 59 5.8 ENE 22 30 12 16 1011.4 1009.2 0.0
23/11:00pm 28.8 29.6 19.1 55 6.4 ENE 13 19 7 10 1011.4 1009.2 0.0
23/10:30pm 29.2 29.4 18.6 52 6.9 ENE 15 19 8 10 1011.2 1009.0 0.0
23/10:00pm 29.6 29.9 18.7 52 7.1 ENE 15 20 8 11 1011.3 1009.1 0.0
23/09:30pm 30.1 29.9 18.5 49 7.6 ENE 17 24 9 13 1011.4 1009.2 0.0
23/09:00pm 30.3 30.2 18.7 50 7.6 NE 17 24 9 13 1011.0 1008.8 0.0
23/08:30pm 30.8 31.1 18.8 48 7.9 NE 15 20 8 11 1010.4 1008.2 0.0
23/08:00pm 32.0 32.1 17.5 42 9.4 ESE 13 19 7 10 1009.8 1007.7 0.0
23/07:30pm 32.4 31.5 17.8 41 9.5 SE 19 24 10 13 1009.4 1007.2 0.0
23/07:00pm 32.8 32.1 17.4 39 10.0 SE 17 20 9 11 1009.0 1006.8 0.0
23/06:30pm 33.3 32.1 17.1 38 10.5 SE 19 24 10 13 1008.3 1006.1 0.0
23/06:00pm 34.2 32.6 16.5 34 11.4 SE 20 26 11 14 1008.1 1005.9 0.0
23/05:30pm 35.1 34.0 16.4 32 12.0 SE 17 26 9 14 1007.6 1005.4 0.0
23/05:00pm 35.2 33.4 16.0 31 12.3 SSE 20 26 11 14 1007.4 1005.2 0.0
23/04:30pm 34.5 32.5 15.4 32 12.1 SSE 20 32 11 17 1007.3 1005.1 0.0
23/04:00pm 35.1 33.8 15.9 31 12.3 SSE 17 24 9 13 1007.4 1005.2 0.0
23/03:30pm 36.6 34.9 16.2 29 13.1 SSE 20 33 11 18 1007.5 1005.3 0.0
23/03:00pm 36.0 34.3 16.2 31 12.8 SE 20 32 11 17 1007.8 1005.6 0.0
23/02:30pm 35.4 34.2 16.2 32 12.3 SE 17 28 9 15 1008.1 1005.9 0.0
23/02:00pm 34.7 33.1 16.1 33 11.9 SSE 19 30 10 16 1008.7 1006.5 0.0
23/01:30pm 35.1 34.0 16.4 32 12.0 SE 17 30 9 16 1009.2 1007.0 0.0

Other Formats:

Comma delimited format used in spreadsheet applications
http://www.bom.gov.au/fwo/IDQ60801/IDQ60801.94343.axf

JavaScript Object Notation format (JSON) in row-major order
http://www.bom.gov.au/fwo/IDQ60801/IDQ60801.94343.json